Latest Weather Observations for Edinburgh

IDS60801

Issued at 11:05 pm CST Tuesday 30 September 2014 (issued every 30 minutes, with the page automatically refreshed every 10 minutes)

About weather observations | Map of weather stations | Latest weather observations for SA | Other Formats
Station Details ID: 023083 Name: EDINBURGH RAAF Lat: -34.71 Lon: 138.62 Height: 16.54 m
Data from the previous 72 hours. | See also: Recent months at Edinburgh
Date/Time
CST
Temp
°C
App
Temp
°C
Dew
Point
Rel
Hum
%
Delta-T
°C
Wind Press
QNH
hPa
Press
MSL
hPa
Rain
since 9 am
mm
Dir
 
Spd
km/h
Gust
km/h
Spd
kts
Gust
kts
30/11:00pm 12.2 7.3 4.9 61 3.3 SSW 20 28 11 15 1022.8 1022.8 0.4
30/10:30pm 12.7 7.0 4.9 59 3.6 SW 24 35 13 19 1022.6 1022.6 0.4
30/10:00pm 12.5 7.2 5.0 60 3.4 SSW 22 28 12 15 1022.4 1022.4 0.4
30/09:30pm 13.2 5.9 4.4 55 4.0 SSW 32 39 17 21 1022.0 1022.0 0.4
30/09:00pm 13.6 8.4 8.9 73 2.4 WSW 26 35 14 19 1021.7 1021.7 0.4
30/08:30pm 14.1 8.1 8.5 69 2.8 WSW 30 41 16 22 1021.3 1021.3 0.4
30/08:00pm 14.1 6.7 8.5 69 2.8 WSW 37 48 20 26 1020.9 1020.9 0.4
30/07:30pm 14.5 6.6 7.8 64 3.3 WSW 39 48 21 26 1020.5 1020.5 0.4
30/07:00pm 14.4 6.5 7.9 65 3.2 SW 39 52 21 28 1019.7 1019.7 0.4
30/06:30pm 15.1 7.5 7.6 61 3.7 SW 37 46 20 25 1019.1 1019.1 0.4
30/06:00pm 14.8 7.5 7.4 61 3.6 SW 35 43 19 23 1018.7 1018.7 0.4
30/05:30pm 15.7 8.1 7.5 58 4.1 SW 37 50 20 27 1018.3 1018.3 0.4
30/05:16pm 16.3 7.6 5.9 50 5.0 SW 41 59 22 32 1018.1 1018.1 0.4
30/05:00pm 16.7 7.0 4.1 43 5.9 SW 44 59 24 32 1017.7 1017.7 0.4
30/04:30pm 17.2 7.6 4.5 43 6.0 SW 44 57 24 31 1017.3 1017.3 0.4
30/04:00pm 16.6 8.0 6.7 52 4.9 SW 41 56 22 30 1017.0 1017.0 0.4
30/03:30pm 17.3 9.5 9.7 61 4.0 SW 41 52 22 28 1016.7 1016.7 0.4
30/03:00pm 17.0 10.4 11.3 69 3.1 SW 37 48 20 26 1016.5 1016.5 0.4
30/02:39pm 15.7 8.6 12.1 79 2.0 SW 41 56 22 30 1016.7 1016.7 0.4
30/02:30pm 15.7 8.5 13.2 85 1.4 SW 43 56 23 30 1016.6 1016.6 0.4
30/02:29pm 15.3 7.9 12.4 83 1.6 SW 43 56 23 30 1016.6 1016.6 0.4
30/02:11pm 15.4 7.4 12.5 83 1.6 SW 46 61 25 33 1016.5 1016.5 0.4
30/02:07pm 17.1 9.4 11.4 69 3.1 WSW 43 61 23 33 1016.2 1016.2 0.0
30/02:00pm 19.6 12.1 10.9 57 4.7 WSW 41 54 22 29 1016.0 1016.0 0.0
30/01:54pm 19.5 11.3 9.7 53 5.2 WSW 43 54 23 29 1015.9 1015.9 0.0
30/01:30pm 20.2 11.1 9.7 51 5.6 W 48 61 26 33 1015.7 1015.7 0.0
30/01:00pm 21.4 13.5 10.9 51 5.8 W 43 57 23 31 1015.7 1015.7 0.0
30/12:30pm 20.6 12.2 9.8 50 5.8 W 44 57 24 31 1015.7 1015.7 0.0
30/12:00pm 20.4 12.1 10.2 52 5.5 W 44 56 24 30 1015.4 1015.4 0.0
30/11:30am 20.3 12.7 10.4 53 5.4 W 41 54 22 29 1015.3 1015.3 0.0
30/11:00am 19.7 11.4 9.9 53 5.2 W 44 54 24 29 1015.3 1015.3 0.0
30/10:30am 20.2 12.3 9.2 49 5.8 W 41 50 22 27 1015.2 1015.2 0.0
30/10:00am 19.7 12.8 10.4 55 5.0 W 37 48 20 26 1015.3 1015.3 0.0
30/09:30am 19.2 12.0 9.1 52 5.3 W 37 54 20 29 1015.1 1015.1 0.0
30/09:21am 19.5 13.3 9.4 52 5.3 WNW 32 50 17 27 1014.9 1014.9 0.0
30/09:00am 19.2 11.9 8.8 51 5.4 W 37 52 20 28 1014.7 1014.7 0.0
30/08:38am 19.4 13.1 9.0 51 5.5 W 32 50 17 27 1014.6 1014.6 0.0
30/08:30am 18.6 12.6 8.6 52 5.2 WNW 30 39 16 21 1014.6 1014.6 0.0
30/08:00am 17.1 11.8 8.3 56 4.5 NW 26 33 14 18 1014.2 1014.2 0.0
30/07:30am 14.5 10.6 8.5 67 3.0 NNW 19 28 10 15 1013.4 1013.4 0.0
30/07:00am 11.6 9.3 7.5 76 2.0 N 9 13 5 7 1013.8 1013.8 0.0
30/06:30am 9.9 8.0 6.8 81 1.5 N 6 9 3 5 1013.4 1013.4 0.0
30/06:00am 9.5 6.2 6.6 82 1.4 N 13 17 7 9 1012.7 1012.7 0.0
30/05:30am 10.0 6.8 6.9 81 1.5 N 13 15 7 8 1012.5 1012.5 0.0
30/05:00am 10.8 7.4 7.7 81 1.5 N 15 20 8 11 1011.9 1011.8 0.0
30/04:30am 10.1 7.2 8.2 88 0.9 NE 13 15 7 8 1012.0 1011.9 0.0
30/04:00am 9.3 6.7 7.6 89 0.8 NE 11 13 6 7 1011.9 1011.8 0.0
30/03:30am 10.0 6.7 8.1 88 0.9 NE 15 15 8 8 1011.8 1011.7 0.0
30/03:00am 9.8 6.8 7.9 88 0.9 NE 13 15 7 8 1012.3 1012.3 0.0
30/02:30am 10.1 7.3 8.5 90 0.8 NE 13 17 7 9 1012.6 1012.6 0.0
30/02:00am 10.6 7.5 8.9 89 0.8 NNE 15 19 8 10 1012.9 1012.9 0.0
30/01:30am 10.2 7.0 8.5 89 0.8 NE 15 19 8 10 1013.2 1013.2 0.0
30/01:00am 10.0 7.1 8.3 89 0.8 NE 13 17 7 9 1013.6 1013.6 0.0
30/12:30am 10.0 7.1 8.3 89 0.8 N 13 19 7 10 1014.2 1014.2 0.0
30/12:00am 11.2 9.8 8.8 85 1.2 ENE 6 7 3 4 1014.3 1014.3 0.0
 
Date/Time
CST
Temp
°C
App
Temp
°C
Dew
Point
Rel
Hum
%
Delta-T
°C
Wind Press
QNH
hPa
Press
MSL
hPa
Rain
since 9 am
mm
Dir
 
Spd
km/h
Gust
km/h
Spd
kts
Gust
kts
29/11:30pm 11.5 10.1 9.4 87 1.1 ENE 7 9 4 5 1014.6 1014.6 0.0
29/11:00pm 11.0 10.7 8.6 85 1.2 CALM 0 0 0 0 1015.1 1015.1 0.0
29/10:30pm 13.8 12.9 10.8 82 1.6 S 6 6 3 3 1015.2 1015.2 0.0
29/10:00pm 13.4 12.3 10.8 84 1.4 S 7 11 4 6 1015.4 1015.4 0.0
29/09:30pm 13.7 11.2 10.9 83 1.5 SW 15 17 8 9 1015.2 1015.2 0.0
29/09:00pm 13.3 10.9 10.1 81 1.7 W 13 17 7 9 1015.0 1015.0 0.0
29/08:30pm 13.5 11.3 9.2 75 2.2 WSW 11 13 6 7 1014.9 1014.9 0.0
29/08:00pm 14.1 11.7 8.5 69 2.8 WSW 11 13 6 7 1014.7 1014.7 0.0
29/07:30pm 15.1 13.0 8.1 63 3.5 W 9 13 5 7 1014.3 1014.3 0.0
29/07:00pm 15.5 14.0 8.3 62 3.6 W 6 7 3 4 1013.8 1013.8 0.0
29/06:30pm 16.7 14.9 7.9 56 4.4 SW 7 7 4 4 1013.5 1013.5 0.0
29/06:00pm 18.3 16.3 8.8 54 4.9 WSW 9 11 5 6 1013.3 1013.3 0.0
29/05:30pm 19.6 17.2 8.6 49 5.7 WSW 11 15 6 8 1013.4 1013.4 0.0
29/05:00pm 19.7 16.4 8.1 47 6.0 W 15 22 8 12 1013.2 1013.2 0.0
29/04:30pm 20.4 15.7 7.7 44 6.5 W 22 30 12 16 1013.2 1013.2 0.0
29/04:00pm 20.7 15.3 8.0 44 6.6 WSW 26 35 14 19 1013.1 1013.1 0.0
29/03:30pm 21.2 15.2 8.5 44 6.7 W 30 35 16 19 1013.0 1013.0 0.0
29/03:00pm 21.8 16.2 8.7 43 6.9 W 28 39 15 21 1013.1 1013.1 0.0
29/02:30pm 21.5 15.4 8.4 43 6.9 W 30 41 16 22 1013.2 1013.2 0.0
29/02:00pm 21.7 15.6 8.2 42 7.1 W 30 41 16 22 1013.6 1013.6 0.0
29/01:30pm 21.7 16.1 8.9 44 6.8 W 28 39 15 21 1013.9 1013.9 0.0
29/01:00pm 21.4 16.2 8.7 44 6.7 W 26 35 14 19 1014.2 1014.2 0.0
29/12:30pm 21.0 16.6 7.6 42 6.9 WNW 20 32 11 17 1014.6 1014.6 0.0
29/12:00pm 20.7 15.6 7.7 43 6.7 WNW 24 35 13 19 1015.2 1015.2 0.0
29/11:30am 19.7 15.5 8.4 48 5.9 WNW 20 32 11 17 1015.6 1015.6 0.0
29/11:00am 18.9 15.0 9.4 54 5.0 WNW 20 30 11 16 1016.0 1016.0 0.0
29/10:30am 18.4 14.7 10.3 59 4.3 WNW 20 32 11 17 1016.2 1016.2 0.0
29/10:00am 17.8 13.6 11.1 65 3.6 W 24 33 13 18 1016.6 1016.6 0.0
29/09:30am 18.0 14.7 10.9 63 3.8 WNW 19 24 10 13 1016.6 1016.6 0.0
29/09:00am 17.0 14.4 11.9 72 2.8 NW 17 24 9 13 1016.6 1016.6 0.0
29/08:59am 16.9 14.2 11.6 71 2.9 NW 17 24 9 13 1016.6 1016.6 0.0
29/08:43am 16.4 13.9 12.4 77 2.2 NNW 17 22 9 12 1016.5 1016.5 0.0
29/08:30am 15.1 12.6 12.2 83 1.6 NNW 17 20 9 11 1016.5 1016.5 0.0
29/08:00am 13.7 11.7 11.6 87 1.1 N 13 17 7 9 1016.3 1016.3 0.0
29/07:30am 12.2 10.3 10.4 89 0.9 N 11 17 6 9 1016.0 1016.0 0.0
29/07:00am 10.9 9.1 9.5 91 0.7 NNE 9 13 5 7 1015.8 1015.8 0.0
29/06:30am 10.3 8.4 8.9 91 0.7 NE 9 13 5 7 1015.7 1015.7 0.0
29/06:00am 10.1 7.7 8.7 91 0.7 NNE 11 15 6 8 1015.6 1015.6 0.0
29/05:30am 10.0 7.6 8.6 91 0.7 NE 11 13 6 7 1015.3 1015.3 0.0
29/05:00am 9.5 7.0 8.1 91 0.7 NNE 11 13 6 7 1015.0 1015.0 0.0
29/04:30am 10.1 8.1 8.5 90 0.8 N 9 13 5 7 1014.6 1014.6 0.0
29/04:00am 10.4 8.0 8.8 90 0.8 NNE 11 13 6 7 1014.5 1014.5 0.0
29/03:30am 10.5 8.1 8.8 89 0.8 NE 11 13 6 7 1014.4 1014.4 0.0
29/03:00am 11.3 9.5 9.4 88 1.0 NNW 9 13 5 7 1014.2 1014.2 0.0
29/02:30am 12.0 10.6 9.7 86 1.2 WNW 7 13 4 7 1014.4 1014.4 0.0
29/02:00am 13.3 10.3 10.8 85 1.3 W 17 22 9 12 1014.3 1014.3 0.0
29/01:30am 13.7 10.4 10.9 83 1.5 W 19 24 10 13 1014.4 1014.4 0.0
29/01:00am 13.9 10.3 10.5 80 1.8 W 20 26 11 14 1014.7 1014.7 0.0
29/12:30am 13.9 10.2 10.1 78 2.0 W 20 30 11 16 1014.9 1014.9 0.0
29/12:00am 13.8 10.7 10.4 80 1.8 W 17 22 9 12 1015.2 1015.2 0.0
 
Date/Time
CST
Temp
°C
App
Temp
°C
Dew
Point
Rel
Hum
%
Delta-T
°C
Wind Press
QNH
hPa
Press
MSL
hPa
Rain
since 9 am
mm
Dir
 
Spd
km/h
Gust
km/h
Spd
kts
Gust
kts
28/11:30pm 13.3 10.6 10.5 83 1.5 W 15 22 8 12 1015.2 1015.2 0.0
28/11:00pm 12.3 9.4 9.7 84 1.3 W 15 17 8 9 1015.3 1015.3 0.0
28/10:30pm 12.2 9.6 9.2 82 1.5 W 13 15 7 8 1015.4 1015.4 0.0
28/10:00pm 13.1 11.3 9.5 79 1.8 W 9 11 5 6 1015.3 1015.3 0.0
28/09:30pm 13.9 10.7 10.1 78 2.0 WSW 17 24 9 13 1015.1 1015.1 0.0
28/09:00pm 14.7 11.7 9.1 69 2.9 WSW 15 20 8 11 1015.2 1015.2 0.0
28/08:30pm 15.2 11.3 9.3 68 3.0 SW 20 28 11 15 1014.8 1014.8 0.0
28/08:00pm 14.9 11.6 10.9 77 2.1 SW 19 22 10 12 1014.3 1014.3 0.0
28/07:30pm 15.3 12.4 11.1 76 2.2 SSW 17 20 9 11 1013.4 1013.4 0.0
28/07:00pm 16.0 12.7 11.0 72 2.7 SSW 19 26 10 14 1012.7 1012.7 0.0
28/06:30pm 16.4 12.4 10.5 68 3.1 SSW 22 28 12 15 1011.7 1011.6 0.0
28/06:00pm 17.0 12.0 11.1 68 3.2 SSW 28 35 15 19 1010.9 1010.8 0.0
28/05:30pm 17.7 11.3 10.8 64 3.7 SSW 35 48 19 26 1010.4 1010.3 0.0
28/05:00pm 18.5 12.1 10.6 60 4.3 SSW 35 48 19 26 1009.7 1009.6 0.0
28/04:30pm 19.5 12.9 10.0 54 5.1 SSW 35 44 19 24 1009.0 1008.9 0.0
28/04:00pm 20.1 12.3 9.9 52 5.5 SSW 41 52 22 28 1008.3 1008.3 0.0
28/03:30pm 21.9 13.0 9.1 44 6.8 SSW 46 56 25 30 1007.4 1007.4 0.0
28/03:27pm 23.4 14.7 10.1 43 7.3 SW 46 56 25 30 1007.0 1007.0 0.0
28/03:18pm 26.9 19.5 6.9 28 10.6 WSW 35 46 19 25 1006.8 1006.8 0.0
28/03:00pm 29.1 20.2 3.1 19 13.1 W 39 54 21 29 1006.4 1006.4 0.0
28/02:30pm 29.4 20.8 4.8 21 12.7 WNW 39 57 21 31 1006.6 1006.6 0.0
28/02:22pm 28.7 19.8 2.8 19 12.9 WNW 39 57 21 31 1006.6 1006.6 0.0
28/02:00pm 29.0 18.9 3.8 20 12.8 W 46 61 25 33 1007.0 1007.0 0.0
28/01:53pm 29.4 18.2 1.8 17 13.5 W 50 57 27 31 1006.8 1006.8 0.0
28/01:30pm 30.8 19.0 0.2 14 14.8 NW 52 74 28 40 1006.9 1006.9 0.0
28/01:03pm 30.6 18.5 1.0 15 14.4 NW 54 78 29 42 1007.2 1007.2 0.0
28/01:00pm 30.6 18.0 0.1 14 14.7 NW 56 72 30 39 1007.2 1007.2 0.0
28/12:33pm 30.3 17.7 -0.1 14 14.5 NNW 56 76 30 41 1007.4 1007.4 0.0
28/12:30pm 30.4 17.9 0.9 15 14.4 NNW 56 72 30 39 1007.4 1007.4 0.0
28/12:00pm 29.0 16.6 1.5 17 13.4 NW 56 76 30 41 1007.6 1007.6 0.0
28/11:30am 29.4 16.7 1.0 16 13.8 NNW 57 76 31 41 1007.9 1007.9 0.0
28/11:03am 30.1 17.1 1.5 16 14.0 NNW 59 78 32 42 1008.2 1008.2 0.0
28/11:00am 29.6 16.2 1.1 16 13.8 NNW 61 78 33 42 1008.2 1008.2 0.0
28/10:30am 29.3 15.9 0.9 16 13.7 NNW 61 85 33 46 1008.0 1008.0 0.0
28/10:00am 28.5 14.8 1.9 18 13.0 NNW 63 83 34 45 1008.8 1008.7 0.0
28/09:54am 28.3 15.0 1.7 18 12.9 NNW 61 80 33 43 1008.8 1008.7 0.0
28/09:49am 27.9 13.0 1.4 18 12.8 NNW 69 80 37 43 1009.0 1008.9 0.0
28/09:36am 27.6 17.6 1.9 19 12.5 NNW 44 78 24 42 1009.0 1008.9 0.0
28/09:30am 27.3 16.7 3.1 21 12.0 N 48 63 26 34 1009.1 1009.0 0.0
28/09:00am 26.5 16.5 2.4 21 11.7 NNW 44 69 24 37 1009.3 1009.2 0.0
28/08:59am 26.3 16.5 2.3 21 11.6 NNW 43 69 23 37 1009.3 1009.2 0.0
28/08:30am 25.1 16.9 2.5 23 10.9 NNW 35 43 19 23 1009.6 1009.5 0.0
28/08:03am 25.2 17.3 2.0 22 11.1 N 33 57 18 31 1008.1 1008.1 0.0
28/08:00am 25.1 17.0 3.1 24 10.7 N 35 48 19 26 1007.9 1007.9 0.0
28/07:30am 23.0 16.3 3.5 28 9.5 NNE 28 35 15 19 1008.0 1008.0 0.0
28/07:00am 21.5 15.2 3.7 31 8.6 NNE 26 35 14 19 1008.2 1008.2 0.0
28/06:30am 18.7 13.3 4.5 39 6.8 NE 22 28 12 15 1008.3 1008.3 0.0
28/06:00am 18.2 13.2 4.7 41 6.5 NE 20 24 11 13 1008.8 1008.7 0.0
28/05:30am 18.2 12.5 4.7 41 6.5 NE 24 28 13 15 1008.5 1008.5 0.0
28/05:00am 18.7 13.1 5.2 41 6.6 NNE 24 32 13 17 1008.9 1008.8 0.0
28/04:30am 18.7 12.7 5.5 42 6.5 NNE 26 32 14 17 1008.8 1008.7 0.0
28/04:00am 18.7 12.8 5.9 43 6.3 NNE 26 35 14 19 1009.0 1008.9 0.0
28/03:30am 18.9 13.0 5.7 42 6.5 NNE 26 33 14 18 1009.8 1009.7 0.0
28/03:00am 19.3 13.0 5.7 41 6.7 NNE 28 35 15 19 1010.3 1010.2 0.0
28/02:30am 18.5 13.0 6.0 44 6.2 NNE 24 30 13 16 1010.9 1010.8 0.0
28/02:00am 19.0 13.0 5.5 41 6.6 NNE 26 30 14 16 1011.4 1011.3 0.0
28/01:30am 20.0 14.3 4.9 37 7.4 NNE 24 32 13 17 1011.8 1011.7 0.0
28/01:00am 19.9 13.4 4.8 37 7.3 NNE 28 33 15 18 1012.0 1011.9 0.0
28/12:30am 20.2 14.1 4.7 36 7.5 N 26 35 14 19 1012.3 1012.3 0.0
28/12:00am 18.3 13.5 5.5 43 6.2 NNE 20 24 11 13 1012.5 1012.5 0.0
 
Date/Time
CST
Temp
°C
App
Temp
°C
Dew
Point
Rel
Hum
%
Delta-T
°C
Wind Press
QNH
hPa
Press
MSL
hPa
Rain
since 9 am
mm
Dir
 
Spd
km/h
Gust
km/h
Spd
kts
Gust
kts
27/11:30pm 19.6 14.4 5.3 39 7.0 NNE 22 28 12 15 1012.7 1012.7 0.0

Other Formats:

Comma delimited format used in spreadsheet applications
http://www.bom.gov.au/fwo/IDS60801/IDS60801.95676.axf

JavaScript Object Notation format (JSON) in row-major order
http://www.bom.gov.au/fwo/IDS60801/IDS60801.95676.json